createdAt,value
2018-12-06T00:00:30.940Z,1017.03
2018-12-06T00:01:30.916Z,1016.96
2018-12-06T00:02:30.906Z,1017.05
2018-12-06T00:03:30.902Z,1016.95
2018-12-06T00:04:30.895Z,1016.98
2018-12-06T00:05:30.873Z,1016.98
2018-12-06T00:06:30.865Z,1016.96
2018-12-06T00:07:30.849Z,1016.91
2018-12-06T00:08:30.843Z,1016.90
2018-12-06T00:09:30.829Z,1016.93
2018-12-06T00:10:30.818Z,1016.83
2018-12-06T00:11:30.810Z,1016.89
2018-12-06T00:12:30.798Z,1016.78
2018-12-06T00:13:30.804Z,1016.86
2018-12-06T00:14:30.782Z,1016.83
2018-12-06T00:15:30.761Z,1016.85
2018-12-06T00:16:30.761Z,1016.81
2018-12-06T00:17:30.739Z,1016.84
2018-12-06T00:18:30.746Z,1016.79
2018-12-06T00:19:30.734Z,1016.80
2018-12-06T00:20:30.709Z,1016.86
2018-12-06T00:21:30.704Z,1016.80
2018-12-06T00:22:30.696Z,1016.89
2018-12-06T00:23:30.673Z,1016.85
2018-12-06T00:24:30.662Z,1016.74
2018-12-06T00:25:30.655Z,1016.81
2018-12-06T00:26:30.655Z,1016.66
2018-12-06T00:27:30.631Z,1016.78
2018-12-06T00:28:30.620Z,1016.75
2018-12-06T00:29:30.609Z,1016.76
2018-12-06T00:30:30.599Z,1016.64
2018-12-06T00:31:30.601Z,1016.67
2018-12-06T00:32:30.592Z,1016.71
2018-12-06T00:33:30.571Z,1016.64
2018-12-06T00:34:30.552Z,1016.75
2018-12-06T00:35:30.560Z,1016.68
2018-12-06T00:36:30.535Z,1016.76
2018-12-06T00:37:30.524Z,1016.74
2018-12-06T00:38:30.514Z,1016.70
2018-12-06T00:39:30.701Z,1016.75
2018-12-06T00:40:30.493Z,1016.71
2018-12-06T00:41:30.480Z,1016.74
2018-12-06T00:42:30.466Z,1016.75
2018-12-06T00:43:30.456Z,1016.76
2018-12-06T00:44:30.449Z,1016.75
2018-12-06T00:45:30.437Z,1016.74
2018-12-06T00:46:30.437Z,1016.73
2018-12-06T00:47:30.409Z,1016.74
2018-12-06T00:48:30.412Z,1016.74
2018-12-06T00:49:30.400Z,1016.74
2018-12-06T00:50:30.376Z,1016.71
2018-12-06T00:51:30.368Z,1016.64
2018-12-06T00:52:30.353Z,1016.66
2018-12-06T00:53:30.341Z,1016.59
2018-12-06T00:54:30.335Z,1016.60
2018-12-06T00:55:30.318Z,1016.62
2018-12-06T00:56:30.310Z,1016.65
2018-12-06T00:57:30.299Z,1016.69
2018-12-06T00:58:30.289Z,1016.59
2018-12-06T00:59:30.274Z,1016.59
2018-12-06T01:00:30.264Z,1016.63
2018-12-06T01:01:30.253Z,1016.56
2018-12-06T01:02:30.246Z,1016.59
2018-12-06T01:03:30.248Z,1016.60
2018-12-06T01:04:30.218Z,1016.55
2018-12-06T01:05:30.207Z,1016.63
2018-12-06T01:06:30.193Z,1016.61
2018-12-06T01:07:30.207Z,1016.49
2018-12-06T01:08:30.177Z,1016.53
2018-12-06T01:09:30.171Z,1016.56
2018-12-06T01:10:30.158Z,1016.56
2018-12-06T01:11:30.141Z,1016.56
2018-12-06T01:12:30.131Z,1016.60
2018-12-06T01:13:30.120Z,1016.51
2018-12-06T01:14:30.109Z,1016.50
2018-12-06T01:15:30.101Z,1016.60
2018-12-06T01:16:30.083Z,1016.55
2018-12-06T01:17:30.078Z,1016.55
2018-12-06T01:18:30.077Z,1016.50
2018-12-06T01:19:30.073Z,1016.48
2018-12-06T01:20:30.053Z,1016.47
2018-12-06T01:21:30.042Z,1016.43
2018-12-06T01:22:30.030Z,1016.35
2018-12-06T01:23:30.027Z,1016.40
2018-12-06T01:24:29.996Z,1016.38
2018-12-06T01:25:30.007Z,1016.40
2018-12-06T01:26:29.987Z,1016.44
2018-12-06T01:27:29.970Z,1016.42
2018-12-06T01:28:29.949Z,1016.42
2018-12-06T01:29:29.941Z,1016.34
2018-12-06T01:30:29.931Z,1016.30
2018-12-06T01:31:29.914Z,1016.27
2018-12-06T01:32:29.907Z,1016.27
2018-12-06T01:33:29.902Z,1016.23
2018-12-06T01:34:29.881Z,1016.20
2018-12-06T01:35:29.872Z,1016.23
2018-12-06T01:36:29.864Z,1016.20
2018-12-06T01:37:29.850Z,1016.21
2018-12-06T01:38:29.836Z,1016.25
2018-12-06T01:39:29.829Z,1016.10
2018-12-06T01:40:29.816Z,1016.12
2018-12-06T01:41:29.816Z,1016.18
2018-12-06T01:42:29.792Z,1016.05
2018-12-06T01:43:29.781Z,1016.19
2018-12-06T01:44:29.767Z,1016.06
2018-12-06T01:45:29.756Z,1016.02
2018-12-06T01:46:29.747Z,1016.08
2018-12-06T01:47:29.732Z,1016.01
2018-12-06T01:48:29.728Z,1016.12
2018-12-06T01:49:29.723Z,1016.04
2018-12-06T01:50:29.715Z,1015.97
2018-12-06T01:51:29.689Z,1015.90
2018-12-06T01:52:29.679Z,1015.98
2018-12-06T01:53:29.665Z,1015.94
2018-12-06T01:54:29.658Z,1015.96
2018-12-06T01:55:29.651Z,1015.92
2018-12-06T01:56:29.645Z,1015.94
2018-12-06T01:57:29.630Z,1015.92
2018-12-06T01:58:29.622Z,1015.96
2018-12-06T01:59:29.608Z,1015.91
2018-12-06T02:00:29.586Z,1015.96
2018-12-06T02:01:29.578Z,1015.87
2018-12-06T02:02:29.567Z,1015.88
2018-12-06T02:03:29.553Z,1015.89
2018-12-06T02:04:29.541Z,1015.97
2018-12-06T02:05:29.548Z,1016.00
2018-12-06T02:06:29.526Z,1015.94
2018-12-06T02:07:29.513Z,1015.91
2018-12-06T02:08:29.505Z,1015.95
2018-12-06T02:09:29.494Z,1015.95
2018-12-06T02:10:29.477Z,1015.91
2018-12-06T02:11:29.463Z,1015.97
2018-12-06T02:12:29.458Z,1015.94
2018-12-06T02:13:29.451Z,1016.00
2018-12-06T02:14:29.431Z,1015.96
2018-12-06T02:15:29.426Z,1015.96
2018-12-06T02:16:29.413Z,1015.92
2018-12-06T02:17:29.401Z,1015.99
2018-12-06T02:18:29.389Z,1015.98
2018-12-06T02:19:29.377Z,1015.94
2018-12-06T02:20:29.366Z,1015.95
2018-12-06T02:21:29.370Z,1015.98
2018-12-06T02:22:29.343Z,1015.94
2018-12-06T02:23:29.338Z,1015.98
2018-12-06T02:24:29.336Z,1015.94
2018-12-06T02:25:29.315Z,1015.89
2018-12-06T02:26:29.310Z,1015.87
2018-12-06T02:27:29.285Z,1015.93
2018-12-06T02:28:29.272Z,1015.88
2018-12-06T02:29:29.263Z,1015.84
2018-12-06T02:30:29.259Z,1015.87
2018-12-06T02:31:29.256Z,1015.82
2018-12-06T02:32:29.242Z,1015.83
2018-12-06T02:33:29.224Z,1015.81
2018-12-06T02:34:29.211Z,1015.79
2018-12-06T02:35:29.209Z,1015.77
2018-12-06T02:36:29.190Z,1015.71
2018-12-06T02:37:29.177Z,1015.66
2018-12-06T02:38:29.184Z,1015.67
2018-12-06T02:39:29.162Z,1015.67
2018-12-06T02:40:29.144Z,1015.68
2018-12-06T02:41:29.133Z,1015.66
2018-12-06T02:42:29.131Z,1015.57
2018-12-06T02:43:29.128Z,1015.54
2018-12-06T02:44:29.096Z,1015.60
2018-12-06T02:45:29.087Z,1015.51
2018-12-06T02:46:29.096Z,1015.39
2018-12-06T02:47:29.102Z,1015.42
2018-12-06T02:48:29.093Z,1015.35
2018-12-06T02:49:29.043Z,1015.38
2018-12-06T02:50:29.037Z,1015.31
2018-12-06T02:51:29.040Z,1015.27
2018-12-06T02:52:29.050Z,1015.27
2018-12-06T02:53:29.045Z,1015.23
2018-12-06T02:54:28.989Z,1015.27
2018-12-06T02:55:28.984Z,1015.26
2018-12-06T02:56:28.968Z,1015.20
2018-12-06T02:57:28.957Z,1015.13
2018-12-06T02:58:28.945Z,1015.08
2018-12-06T02:59:28.959Z,1015.10
2018-12-06T03:00:28.934Z,1015.07
2018-12-06T03:01:28.921Z,1015.05
2018-12-06T03:02:28.903Z,1014.99
2018-12-06T03:03:28.902Z,1015.01
2018-12-06T03:04:28.883Z,1014.97
2018-12-06T03:05:28.874Z,1014.95
2018-12-06T03:06:28.872Z,1014.90
2018-12-06T03:07:28.846Z,1014.90
2018-12-06T03:08:28.834Z,1014.87
2018-12-06T03:09:28.823Z,1014.79
2018-12-06T03:10:28.843Z,1014.81
2018-12-06T03:11:28.802Z,1014.77
2018-12-06T03:12:28.810Z,1014.70
2018-12-06T03:13:28.778Z,1014.69
2018-12-06T03:14:28.788Z,1014.66
2018-12-06T03:15:28.763Z,1014.63
2018-12-06T03:16:28.764Z,1014.62
2018-12-06T03:17:28.739Z,1014.71
2018-12-06T03:18:28.742Z,1014.63
2018-12-06T03:19:28.722Z,1014.64
2018-12-06T03:20:28.708Z,1014.61
2018-12-06T03:21:28.702Z,1014.64
2018-12-06T03:22:28.695Z,1014.60
2018-12-06T03:23:28.677Z,1014.57
2018-12-06T03:24:28.663Z,1014.54
2018-12-06T03:25:28.649Z,1014.44
2018-12-06T03:26:28.638Z,1014.57
2018-12-06T03:27:28.624Z,1014.55
2018-12-06T03:28:28.621Z,1014.44
2018-12-06T03:29:28.602Z,1014.54
2018-12-06T03:30:28.596Z,1014.50
2018-12-06T03:31:28.582Z,1014.41
2018-12-06T03:32:28.579Z,1014.48
2018-12-06T03:33:28.588Z,1014.43
2018-12-06T03:34:28.548Z,1014.42
2018-12-06T03:35:28.533Z,1014.36
2018-12-06T03:36:28.522Z,1014.36
2018-12-06T03:37:28.512Z,1014.33
2018-12-06T03:38:28.505Z,1014.37
2018-12-06T03:39:28.500Z,1014.30
2018-12-06T03:40:28.482Z,1014.29
2018-12-06T03:41:28.468Z,1014.36
2018-12-06T03:42:28.466Z,1014.28
2018-12-06T03:43:28.448Z,1014.23
2018-12-06T03:44:28.445Z,1014.17
2018-12-06T03:45:28.424Z,1014.23
2018-12-06T03:46:28.414Z,1014.11
2018-12-06T03:47:28.406Z,1014.14
2018-12-06T03:48:28.391Z,1014.14
2018-12-06T03:49:28.381Z,1014.12
2018-12-06T03:50:28.368Z,1014.07
2018-12-06T03:51:28.359Z,1013.97
2018-12-06T03:52:28.346Z,1014.06
2018-12-06T03:53:28.342Z,1014.06
2018-12-06T03:54:28.324Z,1013.94
2018-12-06T03:55:28.322Z,1013.91
2018-12-06T03:56:28.301Z,1013.83
2018-12-06T03:57:28.296Z,1013.86
2018-12-06T03:58:28.291Z,1013.86
2018-12-06T03:59:28.269Z,1013.73
2018-12-06T04:00:28.262Z,1013.84
2018-12-06T04:01:28.246Z,1013.82
2018-12-06T04:02:28.237Z,1013.81
2018-12-06T04:03:28.223Z,1013.75
2018-12-06T04:04:28.225Z,1013.71
2018-12-06T04:05:28.201Z,1013.72
2018-12-06T04:06:28.199Z,1013.66
2018-12-06T04:07:28.177Z,1013.68
2018-12-06T04:08:28.169Z,1013.67
2018-12-06T04:09:28.155Z,1013.64
2018-12-06T04:10:28.144Z,1013.64
2018-12-06T04:11:28.140Z,1013.72
2018-12-06T04:12:28.121Z,1013.54
2018-12-06T04:13:28.110Z,1013.62
2018-12-06T04:14:28.103Z,1013.60
2018-12-06T04:15:28.092Z,1013.61
2018-12-06T04:16:28.081Z,1013.48
2018-12-06T04:17:28.067Z,1013.51
2018-12-06T04:18:28.055Z,1013.46
2018-12-06T04:19:28.044Z,1013.47
2018-12-06T04:20:28.031Z,1013.43
2018-12-06T04:21:28.020Z,1013.44
2018-12-06T04:22:28.012Z,1013.40
2018-12-06T04:23:29.412Z,1013.34
2018-12-06T04:24:27.993Z,1013.43
2018-12-06T04:25:27.980Z,1013.41
2018-12-06T04:26:27.970Z,1013.39
2018-12-06T04:27:27.956Z,1013.35
2018-12-06T04:28:27.943Z,1013.33
2018-12-06T04:29:27.930Z,1013.37
2018-12-06T04:30:27.924Z,1013.36
2018-12-06T04:31:27.916Z,1013.27
2018-12-06T04:32:27.897Z,1013.29
2018-12-06T04:33:27.886Z,1013.33
2018-12-06T04:34:27.874Z,1013.26
2018-12-06T04:35:27.863Z,1013.23
2018-12-06T04:36:27.862Z,1013.18
2018-12-06T04:37:27.847Z,1013.18
2018-12-06T04:38:27.830Z,1013.21
2018-12-06T04:39:27.839Z,1013.20
2018-12-06T04:40:27.808Z,1013.24
2018-12-06T04:41:27.803Z,1013.13
2018-12-06T04:42:27.784Z,1013.12
2018-12-06T04:43:27.773Z,1013.14
2018-12-06T04:44:27.769Z,1013.14
2018-12-06T04:45:27.751Z,1013.13
2018-12-06T04:46:27.741Z,1013.11
2018-12-06T04:47:27.730Z,1013.12
2018-12-06T04:48:27.717Z,1013.06
2018-12-06T04:49:27.708Z,1013.06
2018-12-06T04:50:27.698Z,1013.00
2018-12-06T04:51:27.683Z,1013.12
2018-12-06T04:52:27.673Z,1013.02
2018-12-06T04:53:27.662Z,1013.11
2018-12-06T04:54:27.656Z,1013.08
2018-12-06T04:55:27.642Z,1013.08
2018-12-06T04:56:27.636Z,1013.05
2018-12-06T04:57:27.618Z,1013.05
2018-12-06T04:58:27.612Z,1013.07
2018-12-06T04:59:27.603Z,1013.10
2018-12-06T05:00:27.588Z,1013.03
2018-12-06T05:01:27.574Z,1013.06
2018-12-06T05:02:27.562Z,1013.08
2018-12-06T05:03:27.554Z,1013.07
2018-12-06T05:04:27.537Z,1012.99
2018-12-06T05:05:27.527Z,1012.99
2018-12-06T05:06:27.516Z,1013.01
2018-12-06T05:07:27.502Z,1012.95
2018-12-06T05:08:27.491Z,1012.93
2018-12-06T05:09:27.482Z,1012.94
2018-12-06T05:10:27.469Z,1012.93
2018-12-06T05:11:27.458Z,1012.91
2018-12-06T05:12:27.448Z,1012.95
2018-12-06T05:13:27.434Z,1012.96
2018-12-06T05:14:27.425Z,1012.87
2018-12-06T05:15:27.413Z,1012.89
2018-12-06T05:16:27.406Z,1012.95
2018-12-06T05:17:27.400Z,1012.95
2018-12-06T05:18:27.380Z,1012.97
2018-12-06T05:19:27.370Z,1012.96
2018-12-06T05:20:27.359Z,1012.98
2018-12-06T05:21:27.352Z,1012.99
2018-12-06T05:22:27.335Z,1013.02
2018-12-06T05:23:27.321Z,1012.98
2018-12-06T05:24:27.310Z,1012.99
2018-12-06T05:25:27.299Z,1013.03
2018-12-06T05:26:27.293Z,1012.99
2018-12-06T05:27:27.279Z,1012.98
2018-12-06T05:28:27.267Z,1013.01
2018-12-06T05:29:27.253Z,1013.00
2018-12-06T05:30:27.243Z,1012.99
2018-12-06T05:31:27.233Z,1012.92
2018-12-06T05:32:27.221Z,1012.97
2018-12-06T05:33:27.210Z,1013.01
2018-12-06T05:34:27.197Z,1013.02
2018-12-06T05:35:27.187Z,1013.00
2018-12-06T05:36:27.181Z,1012.96
2018-12-06T05:37:27.166Z,1012.99
2018-12-06T05:38:27.158Z,1013.01
2018-12-06T05:39:27.141Z,1013.01
2018-12-06T05:40:27.152Z,1012.98
2018-12-06T05:41:27.119Z,1012.89
2018-12-06T05:42:27.109Z,1012.96
2018-12-06T05:43:27.096Z,1012.98
2018-12-06T05:44:27.133Z,1012.96
2018-12-06T05:45:27.075Z,1013.06
2018-12-06T05:46:27.065Z,1013.03
2018-12-06T05:47:27.057Z,1013.03
2018-12-06T05:48:27.046Z,1013.07
2018-12-06T05:49:27.031Z,1013.02
2018-12-06T05:50:27.020Z,1013.05
2018-12-06T05:51:27.008Z,1012.96
2018-12-06T05:52:27.000Z,1013.00
2018-12-06T05:53:26.990Z,1013.01
2018-12-06T05:54:26.978Z,1012.99
2018-12-06T05:55:26.964Z,1013.03
2018-12-06T05:56:26.960Z,1012.98
2018-12-06T05:57:26.941Z,1012.97
2018-12-06T05:58:26.933Z,1012.94
2018-12-06T05:59:26.924Z,1012.94
2018-12-06T06:00:26.907Z,1012.95
2018-12-06T06:01:26.899Z,1012.96
2018-12-06T06:02:26.887Z,1012.94
2018-12-06T06:03:26.873Z,1012.99
2018-12-06T06:04:26.866Z,1012.96
2018-12-06T06:05:26.850Z,1012.93
2018-12-06T06:06:26.840Z,1012.88
2018-12-06T06:07:26.833Z,1012.90
2018-12-06T06:08:26.818Z,1012.86
2018-12-06T06:09:26.814Z,1012.92
2018-12-06T06:10:26.798Z,1012.91
2018-12-06T06:11:26.787Z,1012.94
2018-12-06T06:12:26.774Z,1012.97
2018-12-06T06:13:26.801Z,1012.97
2018-12-06T06:14:26.751Z,1013.02
2018-12-06T06:15:26.740Z,1013.04
2018-12-06T06:16:26.730Z,1013.06
2018-12-06T06:17:26.718Z,1013.08
2018-12-06T06:18:26.709Z,1013.11
2018-12-06T06:19:26.697Z,1013.12
2018-12-06T06:20:26.687Z,1013.09
2018-12-06T06:21:26.673Z,1013.12
2018-12-06T06:22:26.665Z,1013.04
2018-12-06T06:23:26.651Z,1013.07
2018-12-06T06:24:26.640Z,1013.00
2018-12-06T06:25:26.629Z,1012.92
2018-12-06T06:26:26.618Z,1012.96
2018-12-06T06:27:26.609Z,1012.93
2018-12-06T06:28:26.595Z,1012.87
2018-12-06T06:29:26.585Z,1012.88
2018-12-06T06:30:26.573Z,1012.98
2018-12-06T06:31:26.566Z,1012.93
2018-12-06T06:32:26.560Z,1012.96
2018-12-06T06:33:26.542Z,1012.94
2018-12-06T06:34:26.527Z,1012.99
2018-12-06T06:35:26.519Z,1012.96
2018-12-06T06:36:26.512Z,1013.02
2018-12-06T06:37:26.499Z,1013.04
2018-12-06T06:38:26.488Z,1013.02
2018-12-06T06:39:26.478Z,1013.04
2018-12-06T06:40:26.463Z,1012.99
2018-12-06T06:41:26.456Z,1013.00
2018-12-06T06:42:26.446Z,1013.01
2018-12-06T06:43:26.430Z,1012.88
2018-12-06T06:44:26.419Z,1012.98
2018-12-06T06:45:26.427Z,1012.95
2018-12-06T06:46:26.395Z,1012.89
2018-12-06T06:47:26.390Z,1012.85
2018-12-06T06:48:26.373Z,1012.90
2018-12-06T06:49:26.362Z,1012.91
2018-12-06T06:50:26.350Z,1012.88
2018-12-06T06:51:26.377Z,1013.00
2018-12-06T06:52:26.328Z,1012.87
2018-12-06T06:53:26.316Z,1012.80
2018-12-06T06:54:26.306Z,1012.75
2018-12-06T06:55:26.296Z,1012.55
2018-12-06T06:56:26.290Z,1012.55
2018-12-06T06:57:26.276Z,1012.63
2018-12-06T06:58:26.262Z,1012.57
2018-12-06T06:59:26.498Z,1012.62
2018-12-06T07:00:26.242Z,1012.67
2018-12-06T07:01:26.228Z,1012.70
2018-12-06T07:02:26.226Z,1012.81
2018-12-06T07:03:26.209Z,1012.84
2018-12-06T07:04:26.198Z,1012.79
2018-12-06T07:05:26.187Z,1012.80
2018-12-06T07:06:26.174Z,1012.79
2018-12-06T07:07:26.167Z,1012.78
2018-12-06T07:08:26.154Z,1012.78
2018-12-06T07:09:26.145Z,1012.75
2018-12-06T07:10:26.130Z,1012.74
2018-12-06T07:11:26.119Z,1012.67
2018-12-06T07:12:26.108Z,1012.57
2018-12-06T07:13:26.182Z,1012.61
2018-12-06T07:14:26.086Z,1012.60
2018-12-06T07:15:26.077Z,1012.72
2018-12-06T07:16:26.067Z,1012.67
2018-12-06T07:17:26.054Z,1012.76
2018-12-06T07:18:26.043Z,1012.75
2018-12-06T07:19:26.032Z,1012.70
2018-12-06T07:20:26.020Z,1012.71
2018-12-06T07:21:26.009Z,1012.63
2018-12-06T07:22:25.997Z,1012.59
2018-12-06T07:23:25.990Z,1012.63
2018-12-06T07:24:25.982Z,1012.62
2018-12-06T07:25:25.965Z,1012.67
2018-12-06T07:26:25.953Z,1012.56
2018-12-06T07:27:25.942Z,1012.58
2018-12-06T07:28:25.939Z,1012.47
2018-12-06T07:29:25.922Z,1012.52
2018-12-06T07:30:25.910Z,1012.54
2018-12-06T07:31:25.902Z,1012.50
2018-12-06T07:32:25.893Z,1012.44
2018-12-06T07:33:25.878Z,1012.63
2018-12-06T07:34:25.866Z,1012.49
2018-12-06T07:35:27.854Z,1012.47
2018-12-06T07:36:25.846Z,1012.44
2018-12-06T07:37:25.833Z,1012.39
2018-12-06T07:38:25.822Z,1012.36
2018-12-06T07:39:25.816Z,1012.36
2018-12-06T07:40:25.804Z,1012.38
2018-12-06T07:41:25.787Z,1012.33
2018-12-06T07:42:27.781Z,1012.23
2018-12-06T07:43:25.974Z,1012.37
2018-12-06T07:44:25.756Z,1012.32
2018-12-06T07:45:25.745Z,1012.14
2018-12-06T07:46:25.735Z,1012.14
2018-12-06T07:47:25.725Z,1012.19
2018-12-06T07:48:25.712Z,1012.03
2018-12-06T07:49:25.705Z,1012.04
2018-12-06T07:50:25.694Z,1012.07
2018-12-06T07:51:25.679Z,1011.97
2018-12-06T07:52:25.666Z,1012.03
2018-12-06T07:53:25.665Z,1011.90
2018-12-06T07:54:25.649Z,1011.84
2018-12-06T07:55:25.633Z,1011.80
2018-12-06T07:56:25.632Z,1011.83
2018-12-06T07:57:25.627Z,1011.78
2018-12-06T07:58:27.599Z,1011.62
2018-12-06T07:59:25.597Z,1011.78
2018-12-06T08:00:25.583Z,1011.67
2018-12-06T08:01:25.771Z,1011.75
2018-12-06T08:02:25.556Z,1011.75
2018-12-06T08:03:25.751Z,1011.75
2018-12-06T08:04:25.535Z,1011.75
2018-12-06T08:05:25.522Z,1011.85
2018-12-06T08:06:25.512Z,1011.86
2018-12-06T08:07:25.508Z,1011.90
2018-12-06T08:08:25.497Z,1012.05
2018-12-06T08:09:25.479Z,1011.98
2018-12-06T08:10:25.475Z,1012.13
2018-12-06T08:11:25.461Z,1012.11
2018-12-06T08:12:25.449Z,1012.10
2018-12-06T08:13:25.440Z,1012.11
2018-12-06T08:14:25.428Z,1012.04
2018-12-06T08:16:25.407Z,1012.02
2018-12-06T08:17:25.394Z,1011.92
2018-12-06T08:18:25.392Z,1011.85
2018-12-06T08:19:25.371Z,1011.85
2018-12-06T08:20:25.358Z,1011.80
2018-12-06T08:21:25.351Z,1011.81
2018-12-06T08:22:25.341Z,1011.83
2018-12-06T08:23:25.331Z,1011.82
2018-12-06T08:25:25.303Z,1011.83
2018-12-06T08:26:25.293Z,1011.87
2018-12-06T08:27:25.287Z,1011.95
2018-12-06T08:28:25.273Z,1012.06
2018-12-06T08:29:25.261Z,1012.06
2018-12-06T08:30:25.253Z,1012.11
2018-12-06T08:31:25.248Z,1012.17
2018-12-06T08:32:25.246Z,1012.16
2018-12-06T08:33:25.454Z,1012.17
2018-12-06T08:34:25.250Z,1012.16
2018-12-06T08:35:25.197Z,1012.13
2018-12-06T08:36:25.206Z,1012.21
2018-12-06T08:37:25.200Z,1012.19
2018-12-06T08:38:25.208Z,1012.16
2018-12-06T08:39:25.149Z,1012.20
2018-12-06T08:40:25.137Z,1012.25
2018-12-06T08:41:25.130Z,1012.23
2018-12-06T08:42:25.119Z,1012.27
2018-12-06T08:43:25.112Z,1012.28
2018-12-06T08:44:25.296Z,1012.45
2018-12-06T08:45:27.085Z,1012.45
2018-12-06T08:46:25.082Z,1012.48
2018-12-06T08:47:25.064Z,1012.48
2018-12-06T08:48:25.050Z,1012.50
2018-12-06T08:49:25.038Z,1012.49
2018-12-06T08:50:25.031Z,1012.47
2018-12-06T08:51:25.016Z,1012.48
2018-12-06T08:52:25.010Z,1012.58
2018-12-06T08:53:24.995Z,1012.58
2018-12-06T08:54:24.984Z,1012.56
2018-12-06T08:55:26.972Z,1012.55
2018-12-06T08:56:24.959Z,1012.60
2018-12-06T08:58:25.142Z,1012.57
2018-12-06T08:59:24.933Z,1012.59
2018-12-06T09:02:24.895Z,1012.64
2018-12-06T09:03:24.891Z,1012.64
2018-12-06T09:04:24.873Z,1012.70
2018-12-06T09:05:24.865Z,1012.71
2018-12-06T09:06:24.850Z,1012.73
2018-12-06T09:07:24.838Z,1012.75
2018-12-06T09:08:24.827Z,1012.75
2018-12-06T09:09:24.816Z,1012.73
2018-12-06T09:10:24.812Z,1012.79
2018-12-06T09:11:24.799Z,1012.82
2018-12-06T09:12:24.786Z,1012.80
2018-12-06T09:13:24.778Z,1012.79
2018-12-06T09:14:24.760Z,1012.79
2018-12-06T09:15:24.749Z,1012.83
2018-12-06T09:16:24.737Z,1012.80
2018-12-06T09:17:24.729Z,1012.84
2018-12-06T09:18:24.721Z,1012.82
2018-12-06T09:19:24.707Z,1012.87
2018-12-06T09:20:24.695Z,1012.84
2018-12-06T09:21:24.733Z,1012.87
2018-12-06T09:22:24.678Z,1012.89
2018-12-06T09:23:24.662Z,1012.82
2018-12-06T09:24:24.650Z,1012.81
2018-12-06T09:25:24.642Z,1012.88
2018-12-06T09:26:24.632Z,1012.83
2018-12-06T09:27:24.623Z,1012.80
2018-12-06T09:28:24.624Z,1012.77
2018-12-06T09:29:24.595Z,1012.78
2018-12-06T09:30:24.588Z,1012.80
2018-12-06T09:31:24.572Z,1012.87
2018-12-06T09:32:24.560Z,1012.83
2018-12-06T09:33:24.550Z,1012.86
2018-12-06T09:34:24.539Z,1012.74
2018-12-06T09:35:24.527Z,1012.80
2018-12-06T09:36:24.520Z,1012.77
2018-12-06T09:37:24.506Z,1012.84
2018-12-06T09:38:24.495Z,1012.81
2018-12-06T09:39:24.484Z,1012.79
2018-12-06T09:40:24.480Z,1012.82
2018-12-06T09:41:24.470Z,1012.77
2018-12-06T09:42:24.453Z,1012.78
2018-12-06T09:43:24.445Z,1012.75
2018-12-06T09:44:24.429Z,1012.72
2018-12-06T09:45:24.416Z,1012.72
2018-12-06T09:46:24.405Z,1012.71
2018-12-06T09:47:24.412Z,1012.74
2018-12-06T09:48:24.387Z,1012.74
2018-12-06T09:49:24.373Z,1012.71
2018-12-06T09:50:24.369Z,1012.71
2018-12-06T09:51:24.349Z,1012.74
2018-12-06T09:52:24.344Z,1012.70
2018-12-06T09:53:24.328Z,1012.75
2018-12-06T09:54:24.316Z,1012.70
2018-12-06T09:55:24.305Z,1012.71
2018-12-06T09:56:24.295Z,1012.63
2018-12-06T09:57:24.283Z,1012.71
2018-12-06T09:58:24.272Z,1012.68
2018-12-06T09:59:24.262Z,1012.64
2018-12-06T10:00:24.252Z,1012.60
2018-12-06T10:01:24.269Z,1012.66
2018-12-06T10:02:24.227Z,1012.59
2018-12-06T10:03:24.217Z,1012.68
2018-12-06T10:04:24.211Z,1012.53
2018-12-06T10:05:24.196Z,1012.56
2018-12-06T10:06:24.204Z,1012.60
2018-12-06T10:07:24.175Z,1012.63
2018-12-06T10:08:24.167Z,1012.65
2018-12-06T10:09:24.157Z,1012.66
2018-12-06T10:10:24.142Z,1012.63
2018-12-06T10:11:24.132Z,1012.61
2018-12-06T10:12:24.118Z,1012.60
2018-12-06T10:13:24.106Z,1012.71
2018-12-06T10:14:24.099Z,1012.58
2018-12-06T10:15:24.088Z,1012.59
2018-12-06T10:16:25.302Z,1012.60
2018-12-06T10:17:24.065Z,1012.54
2018-12-06T10:18:24.054Z,1012.53
2018-12-06T10:19:24.037Z,1012.48
2018-12-06T10:20:24.026Z,1012.48
2018-12-06T10:21:24.015Z,1012.45
2018-12-06T10:22:24.004Z,1012.55
2018-12-06T10:23:23.995Z,1012.44
2018-12-06T10:24:23.989Z,1012.47
2018-12-06T10:25:23.971Z,1012.42
2018-12-06T10:26:23.961Z,1012.39
2018-12-06T10:27:23.948Z,1012.46
2018-12-06T10:28:23.942Z,1012.40
2018-12-06T10:29:23.925Z,1012.41
2018-12-06T10:30:23.914Z,1012.38
2018-12-06T10:31:23.903Z,1012.39
2018-12-06T10:32:23.893Z,1012.36
2018-12-06T10:33:23.880Z,1012.37
2018-12-06T10:34:23.875Z,1012.30
2018-12-06T10:35:23.866Z,1012.38
2018-12-06T10:36:23.847Z,1012.32
2018-12-06T10:37:23.839Z,1012.36
2018-12-06T10:38:23.828Z,1012.34
2018-12-06T10:39:23.813Z,1012.37
2018-12-06T10:40:23.803Z,1012.27
2018-12-06T10:41:23.790Z,1012.25
2018-12-06T10:42:23.789Z,1012.24
2018-12-06T10:43:23.769Z,1012.24
2018-12-06T10:44:23.760Z,1012.19
2018-12-06T10:45:23.747Z,1012.19
2018-12-06T10:46:23.743Z,1012.13
2018-12-06T10:47:23.723Z,1012.11
2018-12-06T10:48:23.714Z,1012.11
2018-12-06T10:49:23.707Z,1012.02
2018-12-06T10:50:23.692Z,1012.08
2018-12-06T10:51:23.687Z,1012.11
2018-12-06T10:52:23.669Z,1012.08
2018-12-06T10:53:23.657Z,1012.06
2018-12-06T10:54:23.714Z,1012.09
2018-12-06T10:55:23.633Z,1012.07
2018-12-06T10:56:23.623Z,1012.00
2018-12-06T10:57:23.618Z,1012.07
2018-12-06T10:58:23.604Z,1012.09
2018-12-06T10:59:23.599Z,1012.02
2018-12-06T11:00:23.585Z,1011.95
2018-12-06T11:01:23.567Z,1011.93
2018-12-06T11:02:23.559Z,1011.89
2018-12-06T11:03:23.544Z,1011.87
2018-12-06T11:04:23.534Z,1011.90
2018-12-06T11:05:23.524Z,1011.87
2018-12-06T11:06:23.511Z,1011.86
2018-12-06T11:07:23.506Z,1011.84
2018-12-06T11:08:23.488Z,1011.83
2018-12-06T11:09:23.480Z,1011.78
2018-12-06T11:10:23.475Z,1011.77
2018-12-06T11:11:23.454Z,1011.70
2018-12-06T11:12:23.447Z,1011.70
2018-12-06T11:13:23.431Z,1011.77
2018-12-06T11:14:23.419Z,1011.66
2018-12-06T11:15:23.409Z,1011.69
2018-12-06T11:16:23.397Z,1011.64
2018-12-06T11:17:23.386Z,1011.62
2018-12-06T11:18:23.380Z,1011.57
2018-12-06T11:19:23.370Z,1011.57
2018-12-06T11:20:23.351Z,1011.54
2018-12-06T11:21:23.346Z,1011.57
2018-12-06T11:22:23.329Z,1011.64
2018-12-06T11:23:23.318Z,1011.57
2018-12-06T11:24:23.307Z,1011.54
2018-12-06T11:25:23.305Z,1011.58
2018-12-06T11:26:23.284Z,1011.51
2018-12-06T11:27:23.273Z,1011.43
2018-12-06T11:28:23.261Z,1011.47
2018-12-06T11:29:23.254Z,1011.52
2018-12-06T11:30:23.250Z,1011.47
2018-12-06T11:31:23.230Z,1011.57
2018-12-06T11:32:23.220Z,1011.61
2018-12-06T11:33:23.210Z,1011.56
2018-12-06T11:34:23.197Z,1011.58
2018-12-06T11:35:23.186Z,1011.60
2018-12-06T11:36:23.175Z,1011.66
2018-12-06T11:37:23.164Z,1011.66
2018-12-06T11:38:23.151Z,1011.66
2018-12-06T11:39:23.138Z,1011.64
2018-12-06T11:40:23.127Z,1011.67
2018-12-06T11:41:23.118Z,1011.64
2018-12-06T11:42:23.110Z,1011.59
2018-12-06T11:43:23.098Z,1011.63
2018-12-06T11:44:23.086Z,1011.61
2018-12-06T11:45:23.078Z,1011.63
2018-12-06T11:46:23.060Z,1011.61
2018-12-06T11:47:23.048Z,1011.61
2018-12-06T11:48:26.916Z,1011.59
2018-12-06T11:49:23.024Z,1011.57
2018-12-06T11:50:23.016Z,1011.54
2018-12-06T11:51:23.007Z,1011.49
2018-12-06T11:52:22.995Z,1011.55
2018-12-06T11:53:22.984Z,1011.46
2018-12-06T11:54:22.968Z,1011.46
2018-12-06T11:55:22.999Z,1011.40
2018-12-06T11:56:22.948Z,1011.39
2018-12-06T11:57:22.943Z,1011.40
2018-12-06T11:58:22.928Z,1011.42
2018-12-06T11:59:22.932Z,1011.39
2018-12-06T12:00:22.915Z,1011.36
2018-12-06T12:01:22.889Z,1011.39
2018-12-06T12:02:22.879Z,1011.35
2018-12-06T12:03:22.868Z,1011.38
2018-12-06T12:04:22.862Z,1011.37
2018-12-06T12:05:22.845Z,1011.42
2018-12-06T12:06:22.834Z,1011.41
2018-12-06T12:07:22.824Z,1011.41
2018-12-06T12:08:22.813Z,1011.43
2018-12-06T12:09:22.802Z,1011.32
2018-12-06T12:10:22.793Z,1011.44